Time;durP1;ratioP1;P1;durP2;ratioP2;P2;SDS_P1;SDS_P2;PMS_P1;PMS_P2;Temp;Humidity;BMP_temperature;BMP_pressure;BME280_temperature;BME280_humidity;BME280_pressure;Samples;Min_cycle;Max_cycle;Signal;HPM_P1;HPM_P2
2022/06/19 00:00:46;;;;;;;9.77;4.75;;;;;;;;;;5044800;28;20422;-76
2022/06/19 00:03:15;;;;;;;9.82;4.93;;;;;;;;;;5057446;28;20901;-75
2022/06/19 00:05:43;;;;;;;7.60;4.30;;;;;;;;;;5056134;28;20437;-76
2022/06/19 00:08:11;;;;;;;9.90;5.05;;;;;;;;;;5046044;28;20469;-76
2022/06/19 00:10:38;;;;;;;11.48;6.10;;;;;;;;;;5052699;28;21159;-75
2022/06/19 00:13:05;;;;;;;13.48;5.72;;;;;;;;;;5049426;28;20444;-74
2022/06/19 00:15:32;;;;;;;14.88;5.80;;;;;;;;;;5048957;28;20422;-76
2022/06/19 00:17:59;;;;;;;10.82;5.78;;;;;;;;;;5044125;28;20434;-75
2022/06/19 00:20:26;;;;;;;10.27;5.35;;;;;;;;;;5057818;28;20423;-76
2022/06/19 00:22:55;;;;;;;12.07;5.22;;;;;;;;;;5049732;28;20903;-75
2022/06/19 00:25:22;;;;;;;9.98;4.50;;;;;;;;;;5050096;28;20445;-76
2022/06/19 00:27:49;;;;;;;9.27;4.50;;;;;;;;;;5053950;28;20415;-76
2022/06/19 00:30:16;;;;;;;7.72;4.30;;;;;;;;;;5066024;28;20423;-77
2022/06/19 00:32:43;;;;;;;9.38;4.75;;;;;;;;;;5045558;28;20425;-73
2022/06/19 00:35:10;;;;;;;8.55;4.25;;;;;;;;;;5046162;28;20417;-76
2022/06/19 00:37:38;;;;;;;9.73;4.60;;;;;;;;;;5045531;28;20437;-76
2022/06/19 00:40:09;;;;;;;10.93;4.40;;;;;;;;;;5057183;28;20486;-75
2022/06/19 00:42:36;;;;;;;9.10;4.40;;;;;;;;;;5050901;28;20421;-75
2022/06/19 00:45:04;;;;;;;9.40;4.45;;;;;;;;;;5051721;28;20436;-75
2022/06/19 00:47:34;;;;;;;9.45;4.00;;;;;;;;;;5058213;28;20469;-76
2022/06/19 00:50:05;;;;;;;9.10;4.35;;;;;;;;;;5075538;28;20423;-74
2022/06/19 00:52:34;;;;;;;9.73;4.40;;;;;;;;;;5078156;28;20500;-78
2022/06/19 00:55:03;;;;;;;9.27;4.20;;;;;;;;;;5076888;28;20415;-75
2022/06/19 00:57:34;;;;;;;8.88;4.40;;;;;;;;;;5087246;28;20407;-74
2022/06/19 01:00:03;;;;;;;11.77;4.90;;;;;;;;;;5094285;28;20399;-75
2022/06/19 01:02:30;;;;;;;9.27;4.57;;;;;;;;;;5070728;28;20445;-76
2022/06/19 01:04:57;;;;;;;10.35;4.38;;;;;;;;;;5050282;28;20418;-75
2022/06/19 01:07:26;;;;;;;10.18;4.25;;;;;;;;;;5049702;28;20414;-76
2022/06/19 01:09:53;;;;;;;9.30;4.75;;;;;;;;;;5057099;28;20524;-77
2022/06/19 01:12:21;;;;;;;7.30;4.40;;;;;;;;;;5084932;28;20423;-76
2022/06/19 01:14:50;;;;;;;11.13;5.35;;;;;;;;;;5071392;28;20407;-75
2022/06/19 01:17:18;;;;;;;8.23;5.13;;;;;;;;;;5059853;28;20454;-74
2022/06/19 01:19:45;;;;;;;9.57;4.43;;;;;;;;;;5061384;28;21047;-75
2022/06/19 01:22:17;;;;;;;7.07;4.10;;;;;;;;;;5057880;28;20433;-78
2022/06/19 01:25:02;;;;;;;9.80;4.30;;;;;;;;;;5055601;28;20432;-74
2022/06/19 01:30:16;;;;;;;8.93;4.50;;;;;;;;;;5053708;28;20416;-76
2022/06/19 01:32:44;;;;;;;8.50;4.40;;;;;;;;;;5046544;28;20429;-75
2022/06/19 01:35:11;;;;;;;10.15;4.75;;;;;;;;;;5050378;28;20432;-76
2022/06/19 01:37:40;;;;;;;10.07;4.30;;;;;;;;;;5061871;28;20793;-77
2022/06/19 01:40:12;;;;;;;7.45;4.20;;;;;;;;;;5058758;28;20628;-76
2022/06/19 01:42:40;;;;;;;11.60;4.22;;;;;;;;;;5043290;28;20931;-77
2022/06/19 01:45:08;;;;;;;9.30;4.50;;;;;;;;;;5048217;28;20428;-75
2022/06/19 01:47:35;;;;;;;10.50;4.80;;;;;;;;;;5047777;28;20452;-74
2022/06/19 01:50:02;;;;;;;8.18;3.83;;;;;;;;;;5055996;28;20415;-75
2022/06/19 01:52:30;;;;;;;7.07;4.50;;;;;;;;;;5045653;28;20528;-75
2022/06/19 01:55:03;;;;;;;9.27;4.47;;;;;;;;;;5044333;28;20443;-76
2022/06/19 01:57:32;;;;;;;9.55;5.05;;;;;;;;;;5047854;28;20433;-76
2022/06/19 02:00:00;;;;;;;7.35;4.18;;;;;;;;;;5056214;28;20977;-77
2022/06/19 02:02:28;;;;;;;8.60;4.60;;;;;;;;;;5045601;28;20428;-75
2022/06/19 02:04:56;;;;;;;8.03;4.30;;;;;;;;;;5047791;28;20508;-75
2022/06/19 02:07:25;;;;;;;10.38;4.32;;;;;;;;;;5047603;28;20432;-75
2022/06/19 02:09:54;;;;;;;8.77;4.80;;;;;;;;;;5048119;28;20433;-76
2022/06/19 02:12:22;;;;;;;7.68;3.90;;;;;;;;;;5046915;28;20432;-76
2022/06/19 02:14:51;;;;;;;10.05;4.63;;;;;;;;;;5047099;28;20784;-75
2022/06/19 02:17:20;;;;;;;13.37;4.90;;;;;;;;;;5055829;28;21136;-76
2022/06/19 02:19:47;;;;;;;9.27;4.70;;;;;;;;;;5063832;28;20411;-76
2022/06/19 02:22:15;;;;;;;9.73;4.82;;;;;;;;;;5054121;28;20907;-76
2022/06/19 02:24:43;;;;;;;9.75;4.70;;;;;;;;;;5045966;28;20916;-75
2022/06/19 02:27:11;;;;;;;9.35;4.57;;;;;;;;;;5054955;28;20409;-75
2022/06/19 02:29:39;;;;;;;7.05;4.18;;;;;;;;;;5053035;28;20515;-76
2022/06/19 02:32:09;;;;;;;8.63;4.50;;;;;;;;;;5045071;28;20433;-76
2022/06/19 02:34:38;;;;;;;8.00;4.63;;;;;;;;;;5054105;28;20435;-76
2022/06/19 02:37:06;;;;;;;8.45;4.20;;;;;;;;;;5067070;28;20891;-76
2022/06/19 02:39:41;;;;;;;9.35;4.25;;;;;;;;;;5061568;28;20428;-76
2022/06/19 02:42:19;;;;;;;8.80;4.40;;;;;;;;;;5046881;28;20458;-75
2022/06/19 02:44:46;;;;;;;9.13;4.63;;;;;;;;;;5045098;28;20433;-75
2022/06/19 02:47:15;;;;;;;7.68;4.38;;;;;;;;;;5051994;28;20437;-75
2022/06/19 02:49:42;;;;;;;8.77;4.30;;;;;;;;;;5051872;28;20470;-75
2022/06/19 02:52:10;;;;;;;8.90;4.53;;;;;;;;;;5044818;28;20440;-75
2022/06/19 02:54:38;;;;;;;9.82;4.50;;;;;;;;;;5051767;28;20424;-75
2022/06/19 02:57:05;;;;;;;9.75;4.28;;;;;;;;;;5057867;28;20419;-75
2022/06/19 02:59:33;;;;;;;11.30;4.90;;;;;;;;;;5058145;28;20417;-73
2022/06/19 03:02:00;;;;;;;9.85;5.00;;;;;;;;;;5049331;28;21122;-74
2022/06/19 03:04:32;;;;;;;9.65;4.80;;;;;;;;;;5056795;28;20432;-75
2022/06/19 03:06:59;;;;;;;7.68;4.72;;;;;;;;;;5068228;28;20424;-76
2022/06/19 03:09:26;;;;;;;8.57;4.80;;;;;;;;;;5075824;28;20509;-76
2022/06/19 03:11:53;;;;;;;10.60;5.33;;;;;;;;;;5074373;28;20441;-76
2022/06/19 03:14:20;;;;;;;11.45;5.70;;;;;;;;;;5053277;28;20436;-75
2022/06/19 03:16:47;;;;;;;12.80;5.60;;;;;;;;;;5043684;28;20494;-75
2022/06/19 03:19:15;;;;;;;9.07;5.03;;;;;;;;;;5049275;28;20428;-75
2022/06/19 03:21:43;;;;;;;10.05;5.68;;;;;;;;;;5054681;28;20443;-74
2022/06/19 03:24:11;;;;;;;11.65;6.30;;;;;;;;;;5056961;28;21191;-76
2022/06/19 03:26:39;;;;;;;9.88;7.78;;;;;;;;;;5066831;28;20411;-74
2022/06/19 03:29:07;;;;;;;10.18;7.85;;;;;;;;;;5057688;28;20435;-74
2022/06/19 03:31:34;;;;;;;8.55;7.75;;;;;;;;;;5050326;28;20456;-75
2022/06/19 03:34:01;;;;;;;8.63;7.65;;;;;;;;;;5046474;28;20433;-75
2022/06/19 03:36:28;;;;;;;8.70;7.50;;;;;;;;;;5046222;28;20417;-73
2022/06/19 03:38:57;;;;;;;8.23;7.43;;;;;;;;;;5047216;28;20433;-74
2022/06/19 03:41:24;;;;;;;7.75;7.05;;;;;;;;;;5058912;28;20438;-74
2022/06/19 03:43:51;;;;;;;8.35;7.55;;;;;;;;;;5058818;28;20494;-74
2022/06/19 03:46:19;;;;;;;7.00;6.30;;;;;;;;;;5060668;28;20425;-74
2022/06/19 03:48:47;;;;;;;6.00;5.10;;;;;;;;;;5053222;28;20443;-75
2022/06/19 03:51:15;;;;;;;5.70;4.63;;;;;;;;;;5048238;28;20436;-74
2022/06/19 03:53:43;;;;;;;5.80;4.20;;;;;;;;;;5045473;28;20429;-74
2022/06/19 03:56:16;;;;;;;4.05;3.65;;;;;;;;;;5045983;28;20828;-75
2022/06/19 03:58:49;;;;;;;4.30;3.60;;;;;;;;;;5044559;28;20425;-75
2022/06/19 04:01:17;;;;;;;5.55;3.50;;;;;;;;;;5056668;22;21351;-71
2022/06/19 04:03:45;;;;;;;5.18;3.10;;;;;;;;;;5040722;28;20451;-71
2022/06/19 04:06:13;;;;;;;3.55;2.90;;;;;;;;;;5046057;28;20427;-71
2022/06/19 04:08:41;;;;;;;5.43;3.20;;;;;;;;;;5059552;28;20480;-71
2022/06/19 04:11:08;;;;;;;6.20;3.00;;;;;;;;;;5058910;28;20517;-71
2022/06/19 04:13:37;;;;;;;7.22;3.30;;;;;;;;;;5062128;28;20530;-71
2022/06/19 04:16:05;;;;;;;5.78;3.00;;;;;;;;;;5047744;28;20507;-71
2022/06/19 04:18:32;;;;;;;4.85;2.90;;;;;;;;;;5059521;28;20444;-70
2022/06/19 04:20:59;;;;;;;5.00;3.00;;;;;;;;;;5063421;28;20473;-70
2022/06/19 04:23:27;;;;;;;6.15;3.10;;;;;;;;;;5069989;28;20453;-70
2022/06/19 04:25:54;;;;;;;5.78;3.47;;;;;;;;;;5083786;28;20431;-70
2022/06/19 04:28:24;;;;;;;6.67;2.87;;;;;;;;;;5062618;28;20493;-70
2022/06/19 04:30:53;;;;;;;4.90;2.80;;;;;;;;;;5068944;28;20433;-70
2022/06/19 04:33:21;;;;;;;5.28;3.00;;;;;;;;;;5070119;28;20948;-71
2022/06/19 04:35:48;;;;;;;7.40;3.28;;;;;;;;;;5085690;28;20828;-72
2022/06/19 04:38:16;;;;;;;9.25;3.05;;;;;;;;;;5082195;28;20417;-74
2022/06/19 04:40:43;;;;;;;6.30;2.80;;;;;;;;;;5071006;28;20521;-72
2022/06/19 04:43:11;;;;;;;5.28;2.75;;;;;;;;;;5068406;28;20445;-72
2022/06/19 04:45:39;;;;;;;8.15;3.20;;;;;;;;;;5085573;28;20856;-72
2022/06/19 04:48:07;;;;;;;8.57;3.20;;;;;;;;;;5074509;28;20470;-74
2022/06/19 04:50:34;;;;;;;6.30;2.88;;;;;;;;;;5070228;28;20429;-71
2022/06/19 04:53:01;;;;;;;6.30;2.95;;;;;;;;;;5071273;28;20429;-72
2022/06/19 04:55:29;;;;;;;7.57;3.50;;;;;;;;;;5063632;28;20877;-72
2022/06/19 04:58:00;;;;;;;5.60;2.90;;;;;;;;;;5064919;28;20834;-72
2022/06/19 05:00:27;;;;;;;6.47;2.80;;;;;;;;;;5067991;28;20433;-72
2022/06/19 05:02:54;;;;;;;7.70;3.28;;;;;;;;;;5064696;28;20570;-72
2022/06/19 05:05:23;;;;;;;4.80;2.65;;;;;;;;;;5073982;28;20551;-72
2022/06/19 05:07:50;;;;;;;5.85;2.72;;;;;;;;;;5069300;28;20443;-72
2022/06/19 05:10:18;;;;;;;6.47;3.28;;;;;;;;;;5058746;28;20431;-72
2022/06/19 05:12:45;;;;;;;6.53;2.83;;;;;;;;;;5059471;28;20435;-73
2022/06/19 05:15:12;;;;;;;7.00;3.20;;;;;;;;;;5054149;28;20430;-71
2022/06/19 05:17:39;;;;;;;7.43;3.17;;;;;;;;;;5060808;28;20439;-72
2022/06/19 05:20:07;;;;;;;6.18;3.30;;;;;;;;;;5069192;28;20492;-71
2022/06/19 05:22:36;;;;;;;8.00;2.80;;;;;;;;;;5075440;28;20932;-70
2022/06/19 05:25:08;;;;;;;6.20;2.67;;;;;;;;;;5070164;28;20427;-70
2022/06/19 05:27:36;;;;;;;6.70;2.72;;;;;;;;;;5059082;28;20664;-72
2022/06/19 05:30:03;;;;;;;6.90;2.90;;;;;;;;;;5060696;28;20938;-73
2022/06/19 05:32:30;;;;;;;6.38;2.75;;;;;;;;;;5062460;28;20423;-72
2022/06/19 05:34:57;;;;;;;5.57;2.70;;;;;;;;;;5066787;28;20434;-72
2022/06/19 05:37:24;;;;;;;8.43;3.40;;;;;;;;;;5070627;28;20441;-72
2022/06/19 05:39:53;;;;;;;6.53;3.08;;;;;;;;;;5065953;28;20887;-72
2022/06/19 05:42:20;;;;;;;8.85;3.15;;;;;;;;;;5071873;28;20410;-71
2022/06/19 05:44:47;;;;;;;7.90;3.15;;;;;;;;;;5055475;28;20525;-72
2022/06/19 05:47:14;;;;;;;6.05;2.70;;;;;;;;;;5062944;28;20431;-73
2022/06/19 05:49:41;;;;;;;5.90;2.90;;;;;;;;;;5060979;28;20429;-70
2022/06/19 05:52:15;;;;;;;8.05;3.20;;;;;;;;;;5076987;28;20874;-72
2022/06/19 05:54:43;;;;;;;9.07;3.22;;;;;;;;;;5053713;28;20519;-70
2022/06/19 05:57:11;;;;;;;7.53;3.30;;;;;;;;;;5072491;28;20436;-70
2022/06/19 05:59:38;;;;;;;8.10;2.65;;;;;;;;;;5069647;28;20431;-71
2022/06/19 06:02:06;;;;;;;7.90;3.35;;;;;;;;;;5061034;28;20446;-70
2022/06/19 06:04:33;;;;;;;8.25;3.00;;;;;;;;;;5060769;28;20413;-71
2022/06/19 06:07:00;;;;;;;6.30;2.40;;;;;;;;;;5057750;28;20472;-70
2022/06/19 06:09:27;;;;;;;6.88;2.83;;;;;;;;;;5063174;28;20502;-70
2022/06/19 06:11:54;;;;;;;6.40;3.10;;;;;;;;;;5065292;28;20743;-70
2022/06/19 06:14:22;;;;;;;7.03;2.80;;;;;;;;;;5063849;28;20429;-70
2022/06/19 06:16:49;;;;;;;8.13;3.17;;;;;;;;;;5058328;28;20830;-70
2022/06/19 06:19:16;;;;;;;7.70;2.90;;;;;;;;;;5064585;28;20459;-70
2022/06/19 06:21:44;;;;;;;5.90;2.92;;;;;;;;;;5071152;28;20431;-70
2022/06/19 06:24:13;;;;;;;9.18;3.65;;;;;;;;;;5066474;28;20869;-70
2022/06/19 06:26:40;;;;;;;8.80;3.17;;;;;;;;;;5065165;28;20844;-71
2022/06/19 06:29:08;;;;;;;8.18;3.45;;;;;;;;;;5064116;28;20437;-70
2022/06/19 06:31:37;;;;;;;4.65;2.60;;;;;;;;;;5068001;28;20500;-71
2022/06/19 06:34:04;;;;;;;7.78;3.42;;;;;;;;;;5062830;28;20431;-70
2022/06/19 06:36:32;;;;;;;5.28;2.88;;;;;;;;;;5072149;28;20446;-70
2022/06/19 06:38:59;;;;;;;7.65;2.92;;;;;;;;;;5071849;28;20450;-70
2022/06/19 06:41:27;;;;;;;6.18;3.25;;;;;;;;;;5060894;28;20419;-70
2022/06/19 06:43:54;;;;;;;5.75;2.60;;;;;;;;;;5063652;28;20431;-71
2022/06/19 06:46:23;;;;;;;6.75;2.85;;;;;;;;;;5056653;28;20904;-70
2022/06/19 06:48:53;;;;;;;7.70;3.60;;;;;;;;;;5075542;28;20418;-70
2022/06/19 06:51:22;;;;;;;6.35;2.95;;;;;;;;;;5068796;28;20760;-71
2022/06/19 06:53:50;;;;;;;5.72;3.00;;;;;;;;;;5075522;28;20425;-70
2022/06/19 06:56:17;;;;;;;6.38;3.30;;;;;;;;;;5078065;28;20514;-71
2022/06/19 06:58:44;;;;;;;5.70;2.83;;;;;;;;;;5065596;28;20480;-69
2022/06/19 07:01:15;;;;;;;6.65;3.40;;;;;;;;;;5064082;28;20449;-73
2022/06/19 07:03:42;;;;;;;8.05;3.13;;;;;;;;;;5063443;28;20443;-72
2022/06/19 07:06:11;;;;;;;6.82;2.90;;;;;;;;;;5069264;28;20430;-72
2022/06/19 07:08:38;;;;;;;7.80;3.50;;;;;;;;;;5068143;28;21088;-72
2022/06/19 07:11:05;;;;;;;6.90;3.13;;;;;;;;;;5073493;28;20987;-72
2022/06/19 07:13:33;;;;;;;8.05;3.10;;;;;;;;;;5063540;28;20423;-72
2022/06/19 07:16:00;;;;;;;7.07;3.40;;;;;;;;;;5073311;28;20427;-72
2022/06/19 07:18:27;;;;;;;6.32;3.72;;;;;;;;;;5071295;28;20427;-73
2022/06/19 07:20:54;;;;;;;8.30;3.03;;;;;;;;;;5070433;28;20943;-72
2022/06/19 07:23:23;;;;;;;9.65;3.72;;;;;;;;;;5062700;28;20492;-72
2022/06/19 07:25:50;;;;;;;8.63;3.40;;;;;;;;;;5064994;28;20428;-72
2022/06/19 07:28:17;;;;;;;9.30;3.53;;;;;;;;;;5053432;28;20463;-72
2022/06/19 07:30:45;;;;;;;8.80;3.70;;;;;;;;;;5060324;28;20431;-73
2022/06/19 07:33:13;;;;;;;10.63;4.10;;;;;;;;;;5060013;28;20439;-72
2022/06/19 07:35:40;;;;;;;9.27;3.58;;;;;;;;;;5079197;28;20437;-74
2022/06/19 07:38:07;;;;;;;7.30;3.30;;;;;;;;;;5073532;28;20502;-73
2022/06/19 07:40:36;;;;;;;10.50;4.07;;;;;;;;;;5077274;28;20445;-72
2022/06/19 07:43:03;;;;;;;8.43;4.00;;;;;;;;;;5064498;28;20438;-71
2022/06/19 07:45:30;;;;;;;8.80;4.20;;;;;;;;;;5067623;28;20434;-72
2022/06/19 07:50:42;;;;;;;11.27;4.30;;;;;;;;;;5066655;28;20418;-73
2022/06/19 07:53:09;;;;;;;8.88;4.80;;;;;;;;;;5063806;28;20602;-73
2022/06/19 07:55:39;;;;;;;11.07;5.18;;;;;;;;;;5064320;28;20431;-72
2022/06/19 07:58:07;;;;;;;8.67;4.30;;;;;;;;;;5064291;28;20502;-72
2022/06/19 08:00:35;;;;;;;12.73;5.25;;;;;;;;;;5063440;28;20485;-72
2022/06/19 08:03:02;;;;;;;8.88;4.47;;;;;;;;;;5062544;28;20432;-72
2022/06/19 08:05:31;;;;;;;10.82;4.35;;;;;;;;;;5063664;28;20411;-72
2022/06/19 08:08:01;;;;;;;8.75;5.00;;;;;;;;;;5063907;28;20412;-72
2022/06/19 08:10:29;;;;;;;8.65;4.50;;;;;;;;;;5059282;28;20429;-72
2022/06/19 08:12:58;;;;;;;7.10;3.83;;;;;;;;;;5061242;28;20778;-72
2022/06/19 08:15:25;;;;;;;8.32;3.42;;;;;;;;;;5073684;28;20442;-73
2022/06/19 08:17:52;;;;;;;7.63;3.70;;;;;;;;;;5059811;28;20431;-72
2022/06/19 08:20:20;;;;;;;9.98;4.05;;;;;;;;;;5063978;28;20422;-72
2022/06/19 08:22:48;;;;;;;7.82;3.80;;;;;;;;;;5063996;28;20416;-72
2022/06/19 08:25:16;;;;;;;9.38;4.07;;;;;;;;;;5063332;28;20831;-72
2022/06/19 08:27:47;;;;;;;6.93;3.40;;;;;;;;;;5067378;28;20458;-72
2022/06/19 08:30:18;;;;;;;8.23;3.67;;;;;;;;;;5072648;28;20949;-72
2022/06/19 08:32:45;;;;;;;8.95;3.70;;;;;;;;;;5069074;28;20431;-73
2022/06/19 08:35:12;;;;;;;5.88;2.70;;;;;;;;;;5064591;28;20445;-71
2022/06/19 08:37:40;;;;;;;6.35;3.00;;;;;;;;;;5061332;28;20431;-72
2022/06/19 08:40:10;;;;;;;7.00;3.50;;;;;;;;;;5066486;28;20467;-72
2022/06/19 08:42:41;;;;;;;7.93;3.80;;;;;;;;;;5071214;28;20433;-72
2022/06/19 08:45:26;;;;;;;6.45;2.80;;;;;;;;;;5074054;28;20518;-73
2022/06/19 08:48:06;;;;;;;7.43;2.70;;;;;;;;;;5060590;28;20423;-72
2022/06/19 08:50:34;;;;;;;5.85;2.90;;;;;;;;;;5069448;28;21219;-72
2022/06/19 08:53:09;;;;;;;5.53;2.60;;;;;;;;;;5071297;28;20499;-72
2022/06/19 08:55:41;;;;;;;5.28;2.80;;;;;;;;;;5065129;28;20431;-72
2022/06/19 08:58:12;;;;;;;7.05;2.90;;;;;;;;;;5069591;28;20838;-72
2022/06/19 09:00:45;;;;;;;7.53;3.10;;;;;;;;;;5080315;28;20445;-72
2022/06/19 09:03:16;;;;;;;7.07;2.50;;;;;;;;;;5063518;28;20421;-72
2022/06/19 09:05:49;;;;;;;6.75;2.90;;;;;;;;;;5069950;28;20913;-72
2022/06/19 09:08:30;;;;;;;5.57;2.40;;;;;;;;;;5074492;28;20528;-73
2022/06/19 09:11:03;;;;;;;7.68;2.53;;;;;;;;;;5067884;28;20458;-72
2022/06/19 09:13:43;;;;;;;7.80;2.80;;;;;;;;;;5058199;28;20447;-72
2022/06/19 09:16:14;;;;;;;6.63;2.80;;;;;;;;;;5061282;28;20450;-72
2022/06/19 09:18:47;;;;;;;7.13;2.80;;;;;;;;;;5066141;28;20490;-72
2022/06/19 09:21:18;;;;;;;6.68;2.90;;;;;;;;;;5056658;28;20872;-72
2022/06/19 09:23:58;;;;;;;7.10;3.20;;;;;;;;;;5066389;28;20415;-71
2022/06/19 09:26:28;;;;;;;7.25;3.30;;;;;;;;;;5070823;28;20446;-72
2022/06/19 09:28:58;;;;;;;7.30;3.45;;;;;;;;;;5075364;28;20420;-71
2022/06/19 09:31:28;;;;;;;5.57;2.80;;;;;;;;;;5063841;28;20439;-73
2022/06/19 09:33:59;;;;;;;4.25;2.42;;;;;;;;;;5066993;28;20426;-72
2022/06/19 09:36:29;;;;;;;7.03;2.80;;;;;;;;;;5068282;28;20438;-71
2022/06/19 09:39:00;;;;;;;7.63;2.85;;;;;;;;;;5082557;28;20418;-72
2022/06/19 09:41:30;;;;;;;5.30;2.47;;;;;;;;;;5068499;28;20423;-71
2022/06/19 09:43:59;;;;;;;7.13;2.75;;;;;;;;;;5066741;28;20951;-72
2022/06/19 09:46:29;;;;;;;7.22;2.85;;;;;;;;;;5067998;28;20431;-71
2022/06/19 09:49:01;;;;;;;5.70;2.73;;;;;;;;;;5066758;28;20422;-72
2022/06/19 09:51:33;;;;;;;5.80;2.50;;;;;;;;;;5072082;28;20440;-75
2022/06/19 09:54:02;;;;;;;7.72;3.20;;;;;;;;;;5078026;28;20471;-74
2022/06/19 09:56:33;;;;;;;6.47;3.10;;;;;;;;;;5064628;28;20482;-71
2022/06/19 09:59:05;;;;;;;5.55;3.30;;;;;;;;;;5066710;28;20427;-73
2022/06/19 10:01:32;;;;;;;7.20;3.10;;;;;;;;;;5078112;22;20432;-67
2022/06/19 10:04:02;;;;;;;7.90;3.93;;;;;;;;;;5047317;28;20839;-69
2022/06/19 10:06:38;;;;;;;6.18;3.40;;;;;;;;;;5053271;28;20918;-66
2022/06/19 10:09:11;;;;;;;6.22;3.30;;;;;;;;;;5050781;28;20439;-68
2022/06/19 10:11:40;;;;;;;6.22;3.13;;;;;;;;;;5057682;28;20967;-69
2022/06/19 10:14:12;;;;;;;5.80;3.15;;;;;;;;;;5073219;28;20427;-67
2022/06/19 10:16:45;;;;;;;7.00;3.05;;;;;;;;;;5066279;28;20458;-68
2022/06/19 10:19:15;;;;;;;7.15;3.47;;;;;;;;;;5072460;28;20442;-68
2022/06/19 10:24:33;;;;;;;9.50;3.85;;;;;;;;;;5067053;28;20496;-68
2022/06/19 10:27:04;;;;;;;9.30;3.33;;;;;;;;;;5069892;28;20424;-68
2022/06/19 10:29:39;;;;;;;8.05;3.90;;;;;;;;;;5069963;28;20423;-68
2022/06/19 10:32:15;;;;;;;9.88;4.68;;;;;;;;;;5073993;28;20428;-68
2022/06/19 10:34:50;;;;;;;10.15;4.40;;;;;;;;;;5074476;28;20510;-68
2022/06/19 10:37:20;;;;;;;9.20;5.22;;;;;;;;;;5074340;28;20486;-68
2022/06/19 10:39:55;;;;;;;9.55;4.80;;;;;;;;;;5083470;28;20411;-68
2022/06/19 10:42:26;;;;;;;7.00;4.22;;;;;;;;;;5072271;28;20518;-68
2022/06/19 10:44:58;;;;;;;6.33;4.23;;;;;;;;;;5073056;28;20526;-68
2022/06/19 10:47:30;;;;;;;8.45;4.20;;;;;;;;;;5067949;28;20436;-68
2022/06/19 10:50:03;;;;;;;11.20;4.50;;;;;;;;;;5071753;28;20430;-68
2022/06/19 10:52:41;;;;;;;7.47;4.60;;;;;;;;;;5070349;28;20432;-67
2022/06/19 10:55:17;;;;;;;7.00;4.20;;;;;;;;;;5076529;28;20427;-68
2022/06/19 10:57:55;;;;;;;8.75;4.60;;;;;;;;;;5075207;28;20544;-68
2022/06/19 11:00:22;;;;;;;6.60;3.92;;;;;;;;;;5061947;28;20755;-68
2022/06/19 11:05:40;;;;;;;10.88;5.20;;;;;;;;;;5069775;28;20422;-68
2022/06/19 11:08:07;;;;;;;9.05;6.10;;;;;;;;;;5066739;28;20427;-68
2022/06/19 11:10:38;;;;;;;8.32;4.93;;;;;;;;;;5070133;28;20438;-68
2022/06/19 11:13:05;;;;;;;8.38;5.90;;;;;;;;;;5082974;28;20437;-68
2022/06/19 11:15:34;;;;;;;9.48;5.20;;;;;;;;;;5071664;28;20466;-68
2022/06/19 11:18:11;;;;;;;8.48;4.95;;;;;;;;;;5080187;28;20439;-68
2022/06/19 11:20:40;;;;;;;10.55;4.85;;;;;;;;;;5066783;28;20478;-68
2022/06/19 11:23:09;;;;;;;8.38;4.30;;;;;;;;;;5080960;28;20447;-68
2022/06/19 11:25:37;;;;;;;7.63;4.40;;;;;;;;;;5070628;28;20435;-68
2022/06/19 11:28:06;;;;;;;9.27;4.70;;;;;;;;;;5068557;28;20527;-68
2022/06/19 11:30:35;;;;;;;6.75;3.70;;;;;;;;;;5080075;28;20816;-67
2022/06/19 11:33:04;;;;;;;6.77;4.07;;;;;;;;;;5067267;28;20415;-67
2022/06/19 11:35:40;;;;;;;7.47;4.50;;;;;;;;;;5072995;28;20459;-67
2022/06/19 11:38:07;;;;;;;6.37;3.90;;;;;;;;;;5079857;28;20413;-68
2022/06/19 11:40:36;;;;;;;9.90;3.97;;;;;;;;;;5075539;28;20927;-68
2022/06/19 11:43:05;;;;;;;7.97;4.40;;;;;;;;;;5071625;28;20413;-68
2022/06/19 11:45:35;;;;;;;7.40;4.43;;;;;;;;;;5062100;28;20450;-67
2022/06/19 11:48:05;;;;;;;8.13;3.75;;;;;;;;;;5067356;28;20420;-68
2022/06/19 11:50:39;;;;;;;7.50;4.20;;;;;;;;;;5069031;28;20522;-67
2022/06/19 11:53:14;;;;;;;8.25;4.30;;;;;;;;;;5073873;28;20514;-68
2022/06/19 11:55:43;;;;;;;8.65;4.35;;;;;;;;;;5080633;28;20429;-68
2022/06/19 11:58:15;;;;;;;11.40;5.03;;;;;;;;;;5067266;28;20459;-68
2022/06/19 12:00:43;;;;;;;11.60;5.00;;;;;;;;;;5079167;28;20417;-72
2022/06/19 12:03:17;;;;;;;8.60;4.40;;;;;;;;;;5066686;28;20430;-68
2022/06/19 12:05:52;;;;;;;7.30;4.50;;;;;;;;;;5074343;28;20784;-68
2022/06/19 12:08:22;;;;;;;8.20;4.43;;;;;;;;;;5078984;28;20419;-67
2022/06/19 12:10:52;;;;;;;10.43;4.57;;;;;;;;;;5066322;28;20427;-69
2022/06/19 12:13:22;;;;;;;8.13;4.43;;;;;;;;;;5075778;28;20501;-67
2022/06/19 12:16:02;;;;;;;10.25;4.22;;;;;;;;;;5062069;28;20522;-67
2022/06/19 12:18:29;;;;;;;8.68;4.32;;;;;;;;;;5075941;28;20449;-68
2022/06/19 12:21:01;;;;;;;7.18;4.00;;;;;;;;;;5068136;28;20419;-68
2022/06/19 12:23:33;;;;;;;7.55;4.30;;;;;;;;;;5067877;28;20427;-68
2022/06/19 12:26:02;;;;;;;5.15;3.85;;;;;;;;;;5062791;28;20431;-68
2022/06/19 12:28:32;;;;;;;7.97;4.13;;;;;;;;;;5073157;28;20777;-69
2022/06/19 12:31:01;;;;;;;7.18;3.88;;;;;;;;;;5075819;28;20553;-68
2022/06/19 12:33:29;;;;;;;9.00;3.78;;;;;;;;;;5079748;28;20455;-68
2022/06/19 12:35:58;;;;;;;8.40;4.20;;;;;;;;;;5067043;28;20435;-68
2022/06/19 12:38:26;;;;;;;9.52;3.83;;;;;;;;;;5083147;28;20424;-67
2022/06/19 12:41:01;;;;;;;8.20;3.87;;;;;;;;;;5069901;28;20420;-68
2022/06/19 12:43:33;;;;;;;7.53;3.35;;;;;;;;;;5075309;28;21106;-68
2022/06/19 12:46:00;;;;;;;6.88;3.50;;;;;;;;;;5061934;28;20446;-68
2022/06/19 12:48:36;;;;;;;5.75;3.40;;;;;;;;;;5070602;28;20423;-67
2022/06/19 12:51:06;;;;;;;7.10;4.13;;;;;;;;;;5072208;28;20431;-68
2022/06/19 12:53:39;;;;;;;7.72;3.90;;;;;;;;;;5082620;28;20904;-68
2022/06/19 12:56:12;;;;;;;10.82;4.00;;;;;;;;;;5070610;28;20449;-68
2022/06/19 12:58:46;;;;;;;9.68;4.28;;;;;;;;;;5078857;28;20415;-67
2022/06/19 13:01:16;;;;;;;8.98;3.95;;;;;;;;;;5070904;28;20433;-67
2022/06/19 13:03:48;;;;;;;5.78;2.95;;;;;;;;;;5081091;28;20438;-67
2022/06/19 13:06:31;;;;;;;7.07;3.20;;;;;;;;;;5076203;28;20963;-69
2022/06/19 13:09:02;;;;;;;5.78;2.70;;;;;;;;;;5079865;28;20420;-67
2022/06/19 13:11:36;;;;;;;5.65;2.85;;;;;;;;;;5072931;28;20435;-68
2022/06/19 13:14:08;;;;;;;7.40;3.27;;;;;;;;;;5069987;28;20430;-69
2022/06/19 13:16:39;;;;;;;8.70;3.10;;;;;;;;;;5074784;28;20452;-69
2022/06/19 13:19:11;;;;;;;8.80;3.75;;;;;;;;;;5075988;28;20436;-69
2022/06/19 13:21:43;;;;;;;7.97;3.63;;;;;;;;;;5069306;28;20886;-67
2022/06/19 13:24:22;;;;;;;7.63;3.28;;;;;;;;;;5071219;28;20423;-67
2022/06/19 13:27:12;;;;;;;6.72;3.20;;;;;;;;;;5068767;28;20941;-68
2022/06/19 13:29:49;;;;;;;7.38;3.05;;;;;;;;;;5077311;28;20901;-68
2022/06/19 13:32:22;;;;;;;6.65;3.03;;;;;;;;;;5071876;28;20423;-67
2022/06/19 13:34:56;;;;;;;6.22;2.70;;;;;;;;;;5069486;28;20435;-68
2022/06/19 13:37:25;;;;;;;8.43;2.83;;;;;;;;;;5070343;28;20424;-68
2022/06/19 13:39:54;;;;;;;7.53;2.97;;;;;;;;;;5063844;28;21120;-67
2022/06/19 13:42:39;;;;;;;6.78;2.80;;;;;;;;;;5069393;28;20434;-67
2022/06/19 13:45:25;;;;;;;8.43;3.35;;;;;;;;;;5079164;28;20581;-68
2022/06/19 13:47:55;;;;;;;8.00;2.90;;;;;;;;;;5075340;28;20440;-69
2022/06/19 13:50:24;;;;;;;6.90;2.90;;;;;;;;;;5071473;28;20426;-68
2022/06/19 13:52:57;;;;;;;8.60;3.13;;;;;;;;;;5071442;28;20446;-68
2022/06/19 13:55:29;;;;;;;7.68;2.95;;;;;;;;;;5083158;28;20510;-68
2022/06/19 13:57:59;;;;;;;5.35;2.60;;;;;;;;;;5076242;28;20431;-69
2022/06/19 14:00:34;;;;;;;6.80;2.80;;;;;;;;;;5067069;28;20934;-69
2022/06/19 14:03:14;;;;;;;7.53;2.70;;;;;;;;;;5068917;28;20430;-68
2022/06/19 14:05:43;;;;;;;6.85;2.80;;;;;;;;;;5057057;28;20450;-69
2022/06/19 14:08:15;;;;;;;7.60;2.70;;;;;;;;;;5071552;28;20434;-69
2022/06/19 14:10:48;;;;;;;6.07;2.83;;;;;;;;;;5072292;28;21035;-69
2022/06/19 14:13:24;;;;;;;7.13;3.70;;;;;;;;;;5074632;28;20422;-69
2022/06/19 14:15:59;;;;;;;5.03;3.00;;;;;;;;;;5069398;28;20443;-70
2022/06/19 14:18:33;;;;;;;5.47;2.97;;;;;;;;;;5082624;28;20437;-68
2022/06/19 14:21:06;;;;;;;5.72;3.00;;;;;;;;;;5082452;28;20437;-69
2022/06/19 14:23:38;;;;;;;6.78;2.85;;;;;;;;;;5075524;28;20419;-69
2022/06/19 14:26:09;;;;;;;7.55;2.90;;;;;;;;;;5064916;28;20436;-69
2022/06/19 14:28:45;;;;;;;5.68;3.03;;;;;;;;;;5068077;28;20474;-70
2022/06/19 14:31:14;;;;;;;7.22;2.90;;;;;;;;;;5066351;28;20423;-67
2022/06/19 14:33:45;;;;;;;7.18;3.63;;;;;;;;;;5075120;28;20431;-67
2022/06/19 14:36:24;;;;;;;5.47;2.58;;;;;;;;;;5073364;28;20434;-69
2022/06/19 14:38:52;;;;;;;8.70;3.08;;;;;;;;;;5081207;28;20441;-67
2022/06/19 14:41:28;;;;;;;6.68;3.10;;;;;;;;;;5066564;28;20415;-68
2022/06/19 14:43:57;;;;;;;7.38;3.20;;;;;;;;;;5076025;28;20428;-68
2022/06/19 14:46:45;;;;;;;7.90;3.30;;;;;;;;;;5066999;28;20459;-67
2022/06/19 14:49:30;;;;;;;8.10;3.40;;;;;;;;;;5068663;28;20894;-68
2022/06/19 14:52:03;;;;;;;7.40;3.17;;;;;;;;;;5062355;28;20419;-68
2022/06/19 14:54:47;;;;;;;4.80;2.60;;;;;;;;;;5070384;28;20926;-68
2022/06/19 14:57:17;;;;;;;8.13;3.10;;;;;;;;;;5074187;28;20424;-69
2022/06/19 14:59:50;;;;;;;5.93;2.97;;;;;;;;;;5069551;28;20938;-68
2022/06/19 15:02:18;;;;;;;4.95;3.13;;;;;;;;;;5063081;28;20411;-68
2022/06/19 15:04:55;;;;;;;5.57;2.90;;;;;;;;;;5067656;28;21088;-69
2022/06/19 15:07:25;;;;;;;5.03;2.60;;;;;;;;;;5077231;28;20431;-68